KJYM

Hillsdale Municipal Airport

Hillsdale, Michigan, USA
METAR KJYM 141335Z AUTO 29003KT 10SM OVC110 22/18 A3002 RMK AO2
Observed Flight Rules
Aug-14 @ 13:35 UTC (7 minutes ago) Visual Flight Rules
Wind Visibility Clouds
290° at 3 knots 10 miles
  • Overcast at 11,000' AGL
Temperatures Readings
Current 22°C / 72°F
Dewpoint 18°C / 64°F
Humidity 78%
Altimeter 30.02" Hg
Pressure 1017 hPa
Elevation 360
METAR KJYM 141335Z AUTO 29003KT 10SM OVC110 22/18 A3002 RMK AO2
Observed Flight Rules
Aug-14 @ 13:35 UTC
(7 minutes ago)
VFR
Wind Visibility
290° at 3 knots 10 miles
Clouds
  • Overcast at 11,000' AGL
Temperature Dewpoint
22°C / 72°F 18°C / 64°F
Humidity Altimeter Pressure
78% 30.02" Hg 1017 hPa